sensor_id;sensor_type;location;lat;lon;timestamp;P1;durP1;ratioP1;P2;durP2;ratioP2
18879;SDS011;9572;52.378;13.404;2023-02-11T00:00:12;48.60;;;21.83;;
18879;SDS011;9572;52.378;13.404;2023-02-11T00:02:40;46.57;;;21.27;;
18879;SDS011;9572;52.378;13.404;2023-02-11T00:05:07;52.13;;;21.80;;
18879;SDS011;9572;52.378;13.404;2023-02-11T00:07:34;51.87;;;22.43;;
18879;SDS011;9572;52.378;13.404;2023-02-11T00:10:01;54.80;;;21.47;;
18879;SDS011;9572;52.378;13.404;2023-02-11T00:12:28;46.83;;;21.80;;
18879;SDS011;9572;52.378;13.404;2023-02-11T00:14:57;56.43;;;22.87;;
18879;SDS011;9572;52.378;13.404;2023-02-11T00:17:24;51.93;;;22.47;;
18879;SDS011;9572;52.378;13.404;2023-02-11T00:19:52;51.47;;;22.10;;
18879;SDS011;9572;52.378;13.404;2023-02-11T00:22:19;46.00;;;21.63;;
18879;SDS011;9572;52.378;13.404;2023-02-11T00:24:46;44.13;;;21.30;;
18879;SDS011;9572;52.378;13.404;2023-02-11T00:27:13;47.00;;;21.63;;
18879;SDS011;9572;52.378;13.404;2023-02-11T00:29:40;48.50;;;21.77;;
18879;SDS011;9572;52.378;13.404;2023-02-11T00:32:08;51.57;;;21.27;;
18879;SDS011;9572;52.378;13.404;2023-02-11T00:34:35;50.13;;;21.47;;
18879;SDS011;9572;52.378;13.404;2023-02-11T00:37:03;45.50;;;20.93;;
18879;SDS011;9572;52.378;13.404;2023-02-11T00:39:30;53.07;;;22.43;;
18879;SDS011;9572;52.378;13.404;2023-02-11T00:41:57;43.10;;;20.23;;
18879;SDS011;9572;52.378;13.404;2023-02-11T00:44:24;50.47;;;21.03;;
18879;SDS011;9572;52.378;13.404;2023-02-11T00:46:51;50.97;;;21.50;;
18879;SDS011;9572;52.378;13.404;2023-02-11T00:49:19;49.13;;;20.47;;
18879;SDS011;9572;52.378;13.404;2023-02-11T00:51:46;47.50;;;21.63;;
18879;SDS011;9572;52.378;13.404;2023-02-11T00:54:13;44.20;;;19.60;;
18879;SDS011;9572;52.378;13.404;2023-02-11T00:56:40;44.17;;;21.00;;
18879;SDS011;9572;52.378;13.404;2023-02-11T00:59:07;53.33;;;21.07;;
18879;SDS011;9572;52.378;13.404;2023-02-11T01:01:34;45.40;;;21.53;;
18879;SDS011;9572;52.378;13.404;2023-02-11T01:04:01;44.47;;;20.73;;
18879;SDS011;9572;52.378;13.404;2023-02-11T01:06:29;49.50;;;20.23;;
18879;SDS011;9572;52.378;13.404;2023-02-11T01:08:56;49.00;;;21.87;;
18879;SDS011;9572;52.378;13.404;2023-02-11T01:11:22;54.70;;;23.17;;
18879;SDS011;9572;52.378;13.404;2023-02-11T01:13:49;45.27;;;21.03;;
18879;SDS011;9572;52.378;13.404;2023-02-11T01:16:16;49.87;;;21.63;;
18879;SDS011;9572;52.378;13.404;2023-02-11T01:18:44;47.80;;;21.43;;
18879;SDS011;9572;52.378;13.404;2023-02-11T01:21:11;50.67;;;22.07;;
18879;SDS011;9572;52.378;13.404;2023-02-11T01:23:40;47.53;;;20.90;;
18879;SDS011;9572;52.378;13.404;2023-02-11T01:26:07;42.77;;;19.97;;
18879;SDS011;9572;52.378;13.404;2023-02-11T01:28:34;49.93;;;22.00;;
18879;SDS011;9572;52.378;13.404;2023-02-11T01:31:01;45.60;;;21.23;;
18879;SDS011;9572;52.378;13.404;2023-02-11T01:33:28;47.83;;;21.10;;
18879;SDS011;9572;52.378;13.404;2023-02-11T01:35:58;48.27;;;22.17;;
18879;SDS011;9572;52.378;13.404;2023-02-11T01:38:26;47.03;;;21.53;;
18879;SDS011;9572;52.378;13.404;2023-02-11T01:40:54;46.57;;;22.03;;
18879;SDS011;9572;52.378;13.404;2023-02-11T01:43:23;49.20;;;21.93;;
18879;SDS011;9572;52.378;13.404;2023-02-11T01:45:59;42.47;;;21.23;;
18879;SDS011;9572;52.378;13.404;2023-02-11T01:48:38;45.17;;;20.57;;
18879;SDS011;9572;52.378;13.404;2023-02-11T01:51:10;54.00;;;22.33;;
18879;SDS011;9572;52.378;13.404;2023-02-11T01:53:40;48.87;;;21.43;;
18879;SDS011;9572;52.378;13.404;2023-02-11T01:56:27;48.77;;;21.93;;
18879;SDS011;9572;52.378;13.404;2023-02-11T01:59:14;47.23;;;20.70;;
18879;SDS011;9572;52.378;13.404;2023-02-11T02:01:46;48.37;;;21.67;;
18879;SDS011;9572;52.378;13.404;2023-02-11T02:04:18;51.40;;;22.47;;
18879;SDS011;9572;52.378;13.404;2023-02-11T02:06:47;49.23;;;22.70;;
18879;SDS011;9572;52.378;13.404;2023-02-11T02:09:20;50.47;;;21.90;;
18879;SDS011;9572;52.378;13.404;2023-02-11T02:11:51;44.83;;;21.33;;
18879;SDS011;9572;52.378;13.404;2023-02-11T02:14:18;49.07;;;21.83;;
18879;SDS011;9572;52.378;13.404;2023-02-11T02:16:45;50.07;;;23.50;;
18879;SDS011;9572;52.378;13.404;2023-02-11T02:19:18;51.37;;;22.50;;
18879;SDS011;9572;52.378;13.404;2023-02-11T02:22:14;54.77;;;22.57;;
18879;SDS011;9572;52.378;13.404;2023-02-11T02:25:18;46.97;;;22.50;;
18879;SDS011;9572;52.378;13.404;2023-02-11T02:28:20;49.53;;;22.07;;
18879;SDS011;9572;52.378;13.404;2023-02-11T02:31:07;50.00;;;22.23;;
18879;SDS011;9572;52.378;13.404;2023-02-11T02:33:56;54.33;;;22.83;;
18879;SDS011;9572;52.378;13.404;2023-02-11T02:36:33;46.40;;;21.43;;
18879;SDS011;9572;52.378;13.404;2023-02-11T02:39:05;50.10;;;22.87;;
18879;SDS011;9572;52.378;13.404;2023-02-11T02:41:35;51.20;;;22.90;;
18879;SDS011;9572;52.378;13.404;2023-02-11T02:44:04;56.00;;;23.87;;
18879;SDS011;9572;52.378;13.404;2023-02-11T02:46:33;53.23;;;23.90;;
18879;SDS011;9572;52.378;13.404;2023-02-11T02:49:02;53.60;;;23.73;;
18879;SDS011;9572;52.378;13.404;2023-02-11T02:51:55;52.43;;;22.67;;
18879;SDS011;9572;52.378;13.404;2023-02-11T02:57:44;50.80;;;23.20;;
18879;SDS011;9572;52.378;13.404;2023-02-11T03:00:22;41.50;;;21.90;;
18879;SDS011;9572;52.378;13.404;2023-02-11T03:03:04;54.07;;;23.23;;
18879;SDS011;9572;52.378;13.404;2023-02-11T03:05:42;46.77;;;22.00;;
18879;SDS011;9572;52.378;13.404;2023-02-11T03:08:15;43.97;;;22.27;;
18879;SDS011;9572;52.378;13.404;2023-02-11T03:10:49;48.37;;;22.23;;
18879;SDS011;9572;52.378;13.404;2023-02-11T03:13:18;52.13;;;23.30;;
18879;SDS011;9572;52.378;13.404;2023-02-11T03:15:49;50.50;;;22.77;;
18879;SDS011;9572;52.378;13.404;2023-02-11T03:18:19;50.47;;;23.97;;
18879;SDS011;9572;52.378;13.404;2023-02-11T03:20:51;50.37;;;23.50;;
18879;SDS011;9572;52.378;13.404;2023-02-11T03:23:20;53.00;;;23.57;;
18879;SDS011;9572;52.378;13.404;2023-02-11T03:25:54;46.33;;;22.57;;
18879;SDS011;9572;52.378;13.404;2023-02-11T03:28:26;52.73;;;23.70;;
18879;SDS011;9572;52.378;13.404;2023-02-11T03:30:59;56.00;;;24.57;;
18879;SDS011;9572;52.378;13.404;2023-02-11T03:33:35;50.37;;;23.43;;
18879;SDS011;9572;52.378;13.404;2023-02-11T03:36:07;46.83;;;23.40;;
18879;SDS011;9572;52.378;13.404;2023-02-11T03:38:44;53.80;;;23.13;;
18879;SDS011;9572;52.378;13.404;2023-02-11T03:41:15;46.17;;;24.13;;
18879;SDS011;9572;52.378;13.404;2023-02-11T03:43:47;49.10;;;23.17;;
18879;SDS011;9572;52.378;13.404;2023-02-11T03:46:17;49.47;;;23.43;;
18879;SDS011;9572;52.378;13.404;2023-02-11T03:48:48;54.33;;;23.80;;
18879;SDS011;9572;52.378;13.404;2023-02-11T03:51:20;47.43;;;23.63;;
18879;SDS011;9572;52.378;13.404;2023-02-11T03:53:50;59.70;;;24.60;;
18879;SDS011;9572;52.378;13.404;2023-02-11T03:56:20;49.77;;;24.53;;
18879;SDS011;9572;52.378;13.404;2023-02-11T03:58:50;50.93;;;23.93;;
18879;SDS011;9572;52.378;13.404;2023-02-11T04:01:17;50.27;;;24.30;;
18879;SDS011;9572;52.378;13.404;2023-02-11T04:03:44;49.50;;;25.30;;
18879;SDS011;9572;52.378;13.404;2023-02-11T04:06:11;52.57;;;24.77;;
18879;SDS011;9572;52.378;13.404;2023-02-11T04:08:39;51.67;;;25.13;;
18879;SDS011;9572;52.378;13.404;2023-02-11T04:11:06;52.13;;;25.33;;
18879;SDS011;9572;52.378;13.404;2023-02-11T04:13:33;56.30;;;24.33;;
18879;SDS011;9572;52.378;13.404;2023-02-11T04:16:00;54.83;;;25.20;;
18879;SDS011;9572;52.378;13.404;2023-02-11T04:18:27;56.00;;;25.00;;
18879;SDS011;9572;52.378;13.404;2023-02-11T04:20:54;52.73;;;25.50;;
18879;SDS011;9572;52.378;13.404;2023-02-11T04:23:20;50.73;;;24.97;;
18879;SDS011;9572;52.378;13.404;2023-02-11T04:25:49;53.23;;;26.53;;
18879;SDS011;9572;52.378;13.404;2023-02-11T04:28:16;56.23;;;24.83;;
18879;SDS011;9572;52.378;13.404;2023-02-11T04:30:43;54.33;;;25.77;;
18879;SDS011;9572;52.378;13.404;2023-02-11T04:33:10;56.03;;;26.80;;
18879;SDS011;9572;52.378;13.404;2023-02-11T04:35:36;49.27;;;25.17;;
18879;SDS011;9572;52.378;13.404;2023-02-11T04:38:03;56.83;;;26.80;;
18879;SDS011;9572;52.378;13.404;2023-02-11T04:40:30;52.67;;;25.87;;
18879;SDS011;9572;52.378;13.404;2023-02-11T04:42:58;55.10;;;26.30;;
18879;SDS011;9572;52.378;13.404;2023-02-11T04:45:25;60.73;;;27.40;;
18879;SDS011;9572;52.378;13.404;2023-02-11T04:47:52;57.57;;;26.10;;
18879;SDS011;9572;52.378;13.404;2023-02-11T04:50:19;55.50;;;26.50;;
18879;SDS011;9572;52.378;13.404;2023-02-11T04:52:46;56.90;;;26.77;;
18879;SDS011;9572;52.378;13.404;2023-02-11T04:55:13;55.90;;;27.17;;
18879;SDS011;9572;52.378;13.404;2023-02-11T04:57:39;57.17;;;27.23;;
18879;SDS011;9572;52.378;13.404;2023-02-11T05:00:08;62.70;;;27.73;;
18879;SDS011;9572;52.378;13.404;2023-02-11T05:02:36;63.97;;;27.27;;
18879;SDS011;9572;52.378;13.404;2023-02-11T05:05:03;65.13;;;28.50;;
18879;SDS011;9572;52.378;13.404;2023-02-11T05:07:30;62.67;;;27.90;;
18879;SDS011;9572;52.378;13.404;2023-02-11T05:09:57;62.73;;;27.73;;
18879;SDS011;9572;52.378;13.404;2023-02-11T05:12:24;60.23;;;26.33;;
18879;SDS011;9572;52.378;13.404;2023-02-11T05:14:51;59.47;;;28.27;;
18879;SDS011;9572;52.378;13.404;2023-02-11T05:17:19;62.47;;;29.03;;
18879;SDS011;9572;52.378;13.404;2023-02-11T05:19:46;62.93;;;27.17;;
18879;SDS011;9572;52.378;13.404;2023-02-11T05:22:13;61.43;;;29.67;;
18879;SDS011;9572;52.378;13.404;2023-02-11T05:24:40;63.23;;;30.03;;
18879;SDS011;9572;52.378;13.404;2023-02-11T05:27:07;63.23;;;28.40;;
18879;SDS011;9572;52.378;13.404;2023-02-11T05:29:34;65.30;;;29.30;;
18879;SDS011;9572;52.378;13.404;2023-02-11T05:32:01;61.83;;;29.23;;
18879;SDS011;9572;52.378;13.404;2023-02-11T05:34:29;68.27;;;30.07;;
18879;SDS011;9572;52.378;13.404;2023-02-11T05:36:56;67.93;;;29.20;;
18879;SDS011;9572;52.378;13.404;2023-02-11T05:39:23;60.20;;;29.43;;
18879;SDS011;9572;52.378;13.404;2023-02-11T05:41:50;64.17;;;31.00;;
18879;SDS011;9572;52.378;13.404;2023-02-11T05:44:16;68.87;;;30.67;;
18879;SDS011;9572;52.378;13.404;2023-02-11T05:46:43;65.47;;;30.90;;
18879;SDS011;9572;52.378;13.404;2023-02-11T05:49:10;61.27;;;30.90;;
18879;SDS011;9572;52.378;13.404;2023-02-11T05:51:38;70.03;;;31.43;;
18879;SDS011;9572;52.378;13.404;2023-02-11T05:54:05;69.77;;;30.47;;
18879;SDS011;9572;52.378;13.404;2023-02-11T05:56:32;71.90;;;31.93;;
18879;SDS011;9572;52.378;13.404;2023-02-11T05:58:59;70.80;;;31.77;;
18879;SDS011;9572;52.378;13.404;2023-02-11T06:01:26;71.03;;;30.90;;
18879;SDS011;9572;52.378;13.404;2023-02-11T06:03:53;65.30;;;31.13;;
18879;SDS011;9572;52.378;13.404;2023-02-11T06:06:20;65.33;;;31.07;;
18879;SDS011;9572;52.378;13.404;2023-02-11T06:08:48;72.27;;;31.90;;
18879;SDS011;9572;52.378;13.404;2023-02-11T06:11:15;71.83;;;32.97;;
18879;SDS011;9572;52.378;13.404;2023-02-11T06:13:44;68.03;;;32.60;;
18879;SDS011;9572;52.378;13.404;2023-02-11T06:16:11;68.90;;;32.33;;
18879;SDS011;9572;52.378;13.404;2023-02-11T06:18:37;71.07;;;33.27;;
18879;SDS011;9572;52.378;13.404;2023-02-11T06:21:05;72.33;;;33.47;;
18879;SDS011;9572;52.378;13.404;2023-02-11T06:23:33;67.90;;;31.47;;
18879;SDS011;9572;52.378;13.404;2023-02-11T06:26:02;70.70;;;32.83;;
18879;SDS011;9572;52.378;13.404;2023-02-11T06:28:30;69.37;;;33.10;;
18879;SDS011;9572;52.378;13.404;2023-02-11T06:30:56;72.67;;;34.93;;
18879;SDS011;9572;52.378;13.404;2023-02-11T06:33:23;77.93;;;34.07;;
18879;SDS011;9572;52.378;13.404;2023-02-11T06:35:50;72.83;;;34.47;;
18879;SDS011;9572;52.378;13.404;2023-02-11T06:38:17;76.30;;;32.80;;
18879;SDS011;9572;52.378;13.404;2023-02-11T06:40:46;77.70;;;34.90;;
18879;SDS011;9572;52.378;13.404;2023-02-11T06:43:14;78.13;;;35.07;;
18879;SDS011;9572;52.378;13.404;2023-02-11T06:45:41;79.00;;;34.90;;
18879;SDS011;9572;52.378;13.404;2023-02-11T06:48:08;75.30;;;33.63;;
18879;SDS011;9572;52.378;13.404;2023-02-11T06:50:35;80.97;;;34.73;;
18879;SDS011;9572;52.378;13.404;2023-02-11T06:53:03;79.70;;;35.73;;
18879;SDS011;9572;52.378;13.404;2023-02-11T06:55:30;87.10;;;37.13;;
18879;SDS011;9572;52.378;13.404;2023-02-11T06:57:57;75.90;;;34.47;;
18879;SDS011;9572;52.378;13.404;2023-02-11T07:00:25;91.40;;;37.00;;
18879;SDS011;9572;52.378;13.404;2023-02-11T07:02:53;85.43;;;36.63;;
18879;SDS011;9572;52.378;13.404;2023-02-11T07:05:20;83.63;;;35.60;;
18879;SDS011;9572;52.378;13.404;2023-02-11T07:07:47;80.67;;;37.00;;
18879;SDS011;9572;52.378;13.404;2023-02-11T07:10:14;80.20;;;36.93;;
18879;SDS011;9572;52.378;13.404;2023-02-11T07:12:41;85.10;;;36.30;;
18879;SDS011;9572;52.378;13.404;2023-02-11T07:15:07;82.67;;;35.47;;
18879;SDS011;9572;52.378;13.404;2023-02-11T07:17:36;87.23;;;37.37;;
18879;SDS011;9572;52.378;13.404;2023-02-11T07:20:03;90.63;;;35.73;;
18879;SDS011;9572;52.378;13.404;2023-02-11T07:22:30;74.00;;;35.20;;
18879;SDS011;9572;52.378;13.404;2023-02-11T07:24:58;77.53;;;34.73;;
18879;SDS011;9572;52.378;13.404;2023-02-11T07:27:25;75.77;;;34.37;;
18879;SDS011;9572;52.378;13.404;2023-02-11T07:29:52;85.20;;;36.67;;
18879;SDS011;9572;52.378;13.404;2023-02-11T07:32:19;83.97;;;36.00;;
18879;SDS011;9572;52.378;13.404;2023-02-11T07:34:47;88.27;;;37.77;;
18879;SDS011;9572;52.378;13.404;2023-02-11T07:37:14;84.77;;;35.43;;
18879;SDS011;9572;52.378;13.404;2023-02-11T07:39:41;85.37;;;35.17;;
18879;SDS011;9572;52.378;13.404;2023-02-11T07:42:07;77.70;;;34.63;;
18879;SDS011;9572;52.378;13.404;2023-02-11T07:44:34;84.07;;;36.33;;
18879;SDS011;9572;52.378;13.404;2023-02-11T07:47:01;80.03;;;37.20;;
18879;SDS011;9572;52.378;13.404;2023-02-11T07:49:28;84.37;;;36.03;;
18879;SDS011;9572;52.378;13.404;2023-02-11T07:51:57;87.47;;;36.80;;
18879;SDS011;9572;52.378;13.404;2023-02-11T07:54:23;80.33;;;35.30;;
18879;SDS011;9572;52.378;13.404;2023-02-11T07:56:50;82.30;;;35.40;;
18879;SDS011;9572;52.378;13.404;2023-02-11T07:59:17;77.97;;;34.43;;
18879;SDS011;9572;52.378;13.404;2023-02-11T08:01:44;81.23;;;35.57;;
18879;SDS011;9572;52.378;13.404;2023-02-11T08:04:11;77.93;;;34.97;;
18879;SDS011;9572;52.378;13.404;2023-02-11T08:06:39;74.50;;;34.37;;
18879;SDS011;9572;52.378;13.404;2023-02-11T08:09:10;74.97;;;32.43;;
18879;SDS011;9572;52.378;13.404;2023-02-11T08:11:40;76.57;;;33.23;;
18879;SDS011;9572;52.378;13.404;2023-02-11T08:14:07;74.17;;;32.40;;
18879;SDS011;9572;52.378;13.404;2023-02-11T08:16:34;75.40;;;32.70;;
18879;SDS011;9572;52.378;13.404;2023-02-11T08:19:03;75.33;;;32.97;;
18879;SDS011;9572;52.378;13.404;2023-02-11T08:21:31;73.50;;;31.07;;
18879;SDS011;9572;52.378;13.404;2023-02-11T08:24:01;70.53;;;33.20;;
18879;SDS011;9572;52.378;13.404;2023-02-11T08:26:29;75.87;;;33.10;;
18879;SDS011;9572;52.378;13.404;2023-02-11T08:28:59;68.67;;;31.77;;
18879;SDS011;9572;52.378;13.404;2023-02-11T08:31:27;72.77;;;32.20;;
18879;SDS011;9572;52.378;13.404;2023-02-11T08:33:57;71.77;;;32.17;;
18879;SDS011;9572;52.378;13.404;2023-02-11T08:36:24;73.60;;;31.80;;
18879;SDS011;9572;52.378;13.404;2023-02-11T08:38:53;67.87;;;31.33;;
18879;SDS011;9572;52.378;13.404;2023-02-11T08:41:20;63.53;;;30.53;;
18879;SDS011;9572;52.378;13.404;2023-02-11T08:43:48;72.77;;;30.80;;
18879;SDS011;9572;52.378;13.404;2023-02-11T08:46:16;74.03;;;31.23;;
18879;SDS011;9572;52.378;13.404;2023-02-11T08:48:45;66.53;;;31.37;;
18879;SDS011;9572;52.378;13.404;2023-02-11T08:51:13;73.27;;;30.70;;
18879;SDS011;9572;52.378;13.404;2023-02-11T08:53:41;66.00;;;30.83;;
18879;SDS011;9572;52.378;13.404;2023-02-11T08:56:08;68.00;;;30.83;;
18879;SDS011;9572;52.378;13.404;2023-02-11T08:58:36;69.23;;;31.27;;
18879;SDS011;9572;52.378;13.404;2023-02-11T09:01:08;65.70;;;30.80;;
18879;SDS011;9572;52.378;13.404;2023-02-11T09:03:36;66.83;;;31.10;;
18879;SDS011;9572;52.378;13.404;2023-02-11T09:06:03;70.57;;;31.13;;
18879;SDS011;9572;52.378;13.404;2023-02-11T09:08:32;66.73;;;30.00;;
18879;SDS011;9572;52.378;13.404;2023-02-11T09:11:00;64.67;;;30.00;;
18879;SDS011;9572;52.378;13.404;2023-02-11T09:13:28;70.40;;;30.90;;
18879;SDS011;9572;52.378;13.404;2023-02-11T09:15:55;69.53;;;31.13;;
18879;SDS011;9572;52.378;13.404;2023-02-11T09:18:23;67.67;;;31.13;;
18879;SDS011;9572;52.378;13.404;2023-02-11T09:20:50;68.17;;;31.87;;
18879;SDS011;9572;52.378;13.404;2023-02-11T09:23:17;66.70;;;31.63;;
18879;SDS011;9572;52.378;13.404;2023-02-11T09:25:44;67.23;;;30.13;;
18879;SDS011;9572;52.378;13.404;2023-02-11T09:28:10;65.10;;;29.33;;
18879;SDS011;9572;52.378;13.404;2023-02-11T09:30:37;62.37;;;29.07;;
18879;SDS011;9572;52.378;13.404;2023-02-11T09:33:04;63.03;;;30.60;;
18879;SDS011;9572;52.378;13.404;2023-02-11T09:35:32;59.50;;;29.90;;
18879;SDS011;9572;52.378;13.404;2023-02-11T09:37:59;61.60;;;29.57;;
18879;SDS011;9572;52.378;13.404;2023-02-11T09:40:26;67.00;;;31.43;;
18879;SDS011;9572;52.378;13.404;2023-02-11T09:42:55;67.60;;;30.50;;
18879;SDS011;9572;52.378;13.404;2023-02-11T09:45:26;66.30;;;29.70;;
18879;SDS011;9572;52.378;13.404;2023-02-11T09:47:55;69.37;;;30.33;;
18879;SDS011;9572;52.378;13.404;2023-02-11T09:50:25;62.17;;;28.07;;
18879;SDS011;9572;52.378;13.404;2023-02-11T09:52:57;61.50;;;29.27;;
18879;SDS011;9572;52.378;13.404;2023-02-11T09:55:28;58.37;;;29.87;;
18879;SDS011;9572;52.378;13.404;2023-02-11T09:57:58;62.23;;;28.67;;
18879;SDS011;9572;52.378;13.404;2023-02-11T10:00:31;55.47;;;27.00;;
18879;SDS011;9572;52.378;13.404;2023-02-11T10:03:16;64.40;;;29.23;;
18879;SDS011;9572;52.378;13.404;2023-02-11T10:06:05;60.73;;;29.40;;
18879;SDS011;9572;52.378;13.404;2023-02-11T10:08:52;63.53;;;29.23;;
18879;SDS011;9572;52.378;13.404;2023-02-11T10:11:29;59.30;;;29.63;;
18879;SDS011;9572;52.378;13.404;2023-02-11T10:14:02;56.53;;;27.73;;
18879;SDS011;9572;52.378;13.404;2023-02-11T10:16:47;56.67;;;28.03;;
18879;SDS011;9572;52.378;13.404;2023-02-11T10:19:29;61.60;;;29.17;;
18879;SDS011;9572;52.378;13.404;2023-02-11T10:22:09;58.33;;;27.63;;
18879;SDS011;9572;52.378;13.404;2023-02-11T10:24:41;63.60;;;30.10;;
18879;SDS011;9572;52.378;13.404;2023-02-11T10:27:18;63.27;;;28.93;;
18879;SDS011;9572;52.378;13.404;2023-02-11T10:29:47;61.97;;;29.13;;
18879;SDS011;9572;52.378;13.404;2023-02-11T10:32:21;63.97;;;29.13;;
18879;SDS011;9572;52.378;13.404;2023-02-11T10:34:54;64.93;;;28.90;;
18879;SDS011;9572;52.378;13.404;2023-02-11T10:37:25;62.57;;;28.90;;
18879;SDS011;9572;52.378;13.404;2023-02-11T10:39:54;57.13;;;29.17;;
18879;SDS011;9572;52.378;13.404;2023-02-11T10:42:21;68.50;;;31.10;;
18879;SDS011;9572;52.378;13.404;2023-02-11T10:44:51;61.33;;;28.40;;
18879;SDS011;9572;52.378;13.404;2023-02-11T10:47:23;61.97;;;29.47;;
18879;SDS011;9572;52.378;13.404;2023-02-11T10:49:53;66.10;;;28.67;;
18879;SDS011;9572;52.378;13.404;2023-02-11T10:52:27;57.30;;;29.50;;
18879;SDS011;9572;52.378;13.404;2023-02-11T10:55:13;64.83;;;29.40;;
18879;SDS011;9572;52.378;13.404;2023-02-11T10:57:42;57.07;;;28.60;;
18879;SDS011;9572;52.378;13.404;2023-02-11T11:00:32;63.37;;;28.53;;
18879;SDS011;9572;52.378;13.404;2023-02-11T11:03:04;59.47;;;28.57;;
18879;SDS011;9572;52.378;13.404;2023-02-11T11:05:36;60.83;;;29.47;;
18879;SDS011;9572;52.378;13.404;2023-02-11T11:08:12;60.73;;;28.67;;
18879;SDS011;9572;52.378;13.404;2023-02-11T11:10:41;69.40;;;29.13;;
18879;SDS011;9572;52.378;13.404;2023-02-11T11:13:25;55.07;;;28.00;;
18879;SDS011;9572;52.378;13.404;2023-02-11T11:18:42;60.60;;;29.17;;
18879;SDS011;9572;52.378;13.404;2023-02-11T11:21:12;62.07;;;28.27;;
18879;SDS011;9572;52.378;13.404;2023-02-11T11:23:45;60.53;;;28.57;;
18879;SDS011;9572;52.378;13.404;2023-02-11T11:26:18;56.57;;;27.43;;
18879;SDS011;9572;52.378;13.404;2023-02-11T11:28:56;60.87;;;28.40;;
18879;SDS011;9572;52.378;13.404;2023-02-11T11:31:26;60.43;;;29.70;;
18879;SDS011;9572;52.378;13.404;2023-02-11T11:33:57;57.17;;;27.30;;
18879;SDS011;9572;52.378;13.404;2023-02-11T11:36:31;54.97;;;27.37;;
18879;SDS011;9572;52.378;13.404;2023-02-11T11:39:02;58.97;;;28.77;;
18879;SDS011;9572;52.378;13.404;2023-02-11T11:44:26;60.37;;;28.17;;
18879;SDS011;9572;52.378;13.404;2023-02-11T11:47:11;58.47;;;26.63;;
18879;SDS011;9572;52.378;13.404;2023-02-11T11:49:46;55.87;;;26.17;;
18879;SDS011;9572;52.378;13.404;2023-02-11T11:52:21;57.90;;;27.97;;
18879;SDS011;9572;52.378;13.404;2023-02-11T11:54:59;55.87;;;27.23;;
18879;SDS011;9572;52.378;13.404;2023-02-11T11:57:34;58.93;;;26.83;;
18879;SDS011;9572;52.378;13.404;2023-02-11T12:00:04;63.13;;;29.57;;
18879;SDS011;9572;52.378;13.404;2023-02-11T12:02:50;64.80;;;28.20;;
18879;SDS011;9572;52.378;13.404;2023-02-11T12:05:34;51.10;;;25.23;;
18879;SDS011;9572;52.378;13.404;2023-02-11T12:08:09;51.43;;;25.43;;
18879;SDS011;9572;52.378;13.404;2023-02-11T12:10:50;54.87;;;26.37;;
18879;SDS011;9572;52.378;13.404;2023-02-11T12:13:39;57.17;;;26.30;;
18879;SDS011;9572;52.378;13.404;2023-02-11T12:16:19;60.03;;;26.03;;
18879;SDS011;9572;52.378;13.404;2023-02-11T12:21:59;52.70;;;25.47;;
18879;SDS011;9572;52.378;13.404;2023-02-11T12:24:39;46.80;;;22.93;;
18879;SDS011;9572;52.378;13.404;2023-02-11T12:27:21;58.90;;;24.03;;
18879;SDS011;9572;52.378;13.404;2023-02-11T12:30:02;46.50;;;24.07;;
18879;SDS011;9572;52.378;13.404;2023-02-11T12:32:44;52.03;;;24.67;;
18879;SDS011;9572;52.378;13.404;2023-02-11T12:35:27;50.53;;;24.77;;
18879;SDS011;9572;52.378;13.404;2023-02-11T12:38:12;52.83;;;23.63;;
18879;SDS011;9572;52.378;13.404;2023-02-11T12:40:49;50.50;;;24.70;;
18879;SDS011;9572;52.378;13.404;2023-02-11T12:43:22;45.37;;;23.70;;
18879;SDS011;9572;52.378;13.404;2023-02-11T12:46:04;50.07;;;23.27;;
18879;SDS011;9572;52.378;13.404;2023-02-11T12:48:46;49.43;;;22.30;;
18879;SDS011;9572;52.378;13.404;2023-02-11T12:51:27;44.97;;;23.40;;
18879;SDS011;9572;52.378;13.404;2023-02-11T12:54:06;44.03;;;22.47;;
18879;SDS011;9572;52.378;13.404;2023-02-11T12:56:43;42.13;;;21.87;;
18879;SDS011;9572;52.378;13.404;2023-02-11T12:59:15;40.63;;;22.43;;
18879;SDS011;9572;52.378;13.404;2023-02-11T13:01:53;43.40;;;21.87;;
18879;SDS011;9572;52.378;13.404;2023-02-11T13:04:23;41.30;;;21.87;;
18879;SDS011;9572;52.378;13.404;2023-02-11T13:06:54;45.33;;;21.13;;
18879;SDS011;9572;52.378;13.404;2023-02-11T13:09:26;41.43;;;21.43;;
18879;SDS011;9572;52.378;13.404;2023-02-11T13:11:59;45.80;;;21.47;;
18879;SDS011;9572;52.378;13.404;2023-02-11T13:14:51;38.40;;;20.67;;
18879;SDS011;9572;52.378;13.404;2023-02-11T13:17:24;40.67;;;20.77;;
18879;SDS011;9572;52.378;13.404;2023-02-11T13:19:57;41.40;;;20.50;;
18879;SDS011;9572;52.378;13.404;2023-02-11T13:22:29;36.83;;;19.83;;
18879;SDS011;9572;52.378;13.404;2023-02-11T13:25:02;39.93;;;19.03;;
18879;SDS011;9572;52.378;13.404;2023-02-11T13:27:35;38.07;;;19.73;;
18879;SDS011;9572;52.378;13.404;2023-02-11T13:33:02;39.00;;;19.87;;
18879;SDS011;9572;52.378;13.404;2023-02-11T13:35:33;38.30;;;20.13;;
18879;SDS011;9572;52.378;13.404;2023-02-11T13:38:02;37.60;;;18.97;;
18879;SDS011;9572;52.378;13.404;2023-02-11T13:40:32;31.80;;;19.43;;
18879;SDS011;9572;52.378;13.404;2023-02-11T13:43:01;40.67;;;19.43;;
18879;SDS011;9572;52.378;13.404;2023-02-11T13:45:30;39.63;;;20.30;;
18879;SDS011;9572;52.378;13.404;2023-02-11T13:48:04;40.77;;;20.33;;
18879;SDS011;9572;52.378;13.404;2023-02-11T13:50:35;36.27;;;20.20;;
18879;SDS011;9572;52.378;13.404;2023-02-11T13:53:04;33.67;;;19.00;;
18879;SDS011;9572;52.378;13.404;2023-02-11T13:55:32;53.77;;;26.60;;
18879;SDS011;9572;52.378;13.404;2023-02-11T13:58:15;35.13;;;18.43;;
18879;SDS011;9572;52.378;13.404;2023-02-11T14:00:45;33.13;;;17.87;;
18879;SDS011;9572;52.378;13.404;2023-02-11T14:03:26;37.17;;;19.07;;
18879;SDS011;9572;52.378;13.404;2023-02-11T14:06:16;30.63;;;17.20;;
18879;SDS011;9572;52.378;13.404;2023-02-11T14:12:20;32.27;;;17.63;;
18879;SDS011;9572;52.378;13.404;2023-02-11T14:14:57;34.67;;;17.63;;
18879;SDS011;9572;52.378;13.404;2023-02-11T14:17:26;38.77;;;19.13;;
18879;SDS011;9572;52.378;13.404;2023-02-11T14:19:59;35.33;;;18.33;;
18879;SDS011;9572;52.378;13.404;2023-02-11T14:22:29;33.70;;;18.67;;
18879;SDS011;9572;52.378;13.404;2023-02-11T14:25:11;36.10;;;19.77;;
18879;SDS011;9572;52.378;13.404;2023-02-11T14:27:43;32.70;;;18.50;;
18879;SDS011;9572;52.378;13.404;2023-02-11T14:30:20;39.40;;;20.57;;
18879;SDS011;9572;52.378;13.404;2023-02-11T14:36:06;38.60;;;18.80;;
18879;SDS011;9572;52.378;13.404;2023-02-11T14:38:47;41.13;;;20.07;;
18879;SDS011;9572;52.378;13.404;2023-02-11T14:41:25;38.03;;;19.00;;
18879;SDS011;9572;52.378;13.404;2023-02-11T14:43:55;34.73;;;18.40;;
18879;SDS011;9572;52.378;13.404;2023-02-11T14:46:25;34.10;;;18.20;;
18879;SDS011;9572;52.378;13.404;2023-02-11T14:48:55;36.90;;;18.33;;
18879;SDS011;9572;52.378;13.404;2023-02-11T14:51:27;36.57;;;18.63;;
18879;SDS011;9572;52.378;13.404;2023-02-11T14:53:57;33.90;;;18.63;;
18879;SDS011;9572;52.378;13.404;2023-02-11T14:56:27;36.87;;;18.50;;
18879;SDS011;9572;52.378;13.404;2023-02-11T14:58:58;35.53;;;18.57;;
18879;SDS011;9572;52.378;13.404;2023-02-11T15:01:28;37.73;;;18.37;;
18879;SDS011;9572;52.378;13.404;2023-02-11T15:03:58;35.10;;;17.57;;